sensor_id;sensor_type;location;lat;lon;timestamp;pressure;altitude;pressure_sealevel;temperature;humidity
34983;BME280;21187;50.976;13.720;2023-03-18T00:03:02;97840.91;;;9.94;32.60
34983;BME280;21187;50.976;13.720;2023-03-18T00:08:04;97834.66;;;9.90;32.78
34983;BME280;21187;50.976;13.720;2023-03-18T00:13:07;97830.47;;;9.76;32.92
34983;BME280;21187;50.976;13.720;2023-03-18T00:18:08;97832.16;;;9.65;33.60
34983;BME280;21187;50.976;13.720;2023-03-18T00:23:11;97830.22;;;9.65;33.11
34983;BME280;21187;50.976;13.720;2023-03-18T00:28:13;97826.31;;;9.63;33.31
34983;BME280;21187;50.976;13.720;2023-03-18T00:33:19;97836.34;;;9.62;33.18
34983;BME280;21187;50.976;13.720;2023-03-18T00:38:21;97826.56;;;9.58;33.07
34983;BME280;21187;50.976;13.720;2023-03-18T00:43:24;97832.34;;;9.56;33.60
34983;BME280;21187;50.976;13.720;2023-03-18T00:48:30;97820.75;;;9.56;33.17
34983;BME280;21187;50.976;13.720;2023-03-18T00:53:32;97816.84;;;9.53;33.87
34983;BME280;21187;50.976;13.720;2023-03-18T00:58:34;97805.22;;;9.53;33.70
34983;BME280;21187;50.976;13.720;2023-03-18T01:03:40;97810.56;;;9.49;33.46
34983;BME280;21187;50.976;13.720;2023-03-18T01:08:45;97806.63;;;9.46;33.68
34983;BME280;21187;50.976;13.720;2023-03-18T01:13:48;97791.81;;;9.40;33.65
34983;BME280;21187;50.976;13.720;2023-03-18T01:18:50;97800.63;;;9.37;33.84
34983;BME280;21187;50.976;13.720;2023-03-18T01:23:52;97799.47;;;9.38;33.65
34983;BME280;21187;50.976;13.720;2023-03-18T01:28:55;97798.25;;;9.36;34.02
34983;BME280;21187;50.976;13.720;2023-03-18T01:33:57;97801.75;;;9.36;33.75
34983;BME280;21187;50.976;13.720;2023-03-18T01:39:01;97790.88;;;9.32;33.72
34983;BME280;21187;50.976;13.720;2023-03-18T01:44:11;97777.00;;;9.34;33.79
34983;BME280;21187;50.976;13.720;2023-03-18T01:49:45;97784.69;;;9.32;33.95
34983;BME280;21187;50.976;13.720;2023-03-18T01:54:54;97783.19;;;9.35;33.55
34983;BME280;21187;50.976;13.720;2023-03-18T01:59:59;97789.38;;;9.35;34.15
34983;BME280;21187;50.976;13.720;2023-03-18T02:05:04;97784.59;;;9.28;33.98
34983;BME280;21187;50.976;13.720;2023-03-18T02:10:19;97785.31;;;9.25;34.38
34983;BME280;21187;50.976;13.720;2023-03-18T02:15:24;97801.44;;;9.22;34.15
34983;BME280;21187;50.976;13.720;2023-03-18T02:20:42;97797.41;;;9.15;34.44
34983;BME280;21187;50.976;13.720;2023-03-18T02:31:36;97817.91;;;9.16;34.06
34983;BME280;21187;50.976;13.720;2023-03-18T02:36:39;97822.16;;;9.18;33.80
34983;BME280;21187;50.976;13.720;2023-03-18T02:41:43;97807.53;;;9.19;34.07
34983;BME280;21187;50.976;13.720;2023-03-18T02:47:02;97818.41;;;9.22;34.25
34983;BME280;21187;50.976;13.720;2023-03-18T02:52:06;97839.69;;;9.24;34.33
34983;BME280;21187;50.976;13.720;2023-03-18T02:57:09;97842.41;;;9.24;34.10
34983;BME280;21187;50.976;13.720;2023-03-18T03:02:18;97850.06;;;9.22;34.41
34983;BME280;21187;50.976;13.720;2023-03-18T03:07:25;97839.25;;;9.22;34.25
34983;BME280;21187;50.976;13.720;2023-03-18T03:12:28;97869.31;;;9.20;34.53
34983;BME280;21187;50.976;13.720;2023-03-18T03:17:31;97860.69;;;9.14;34.45
34983;BME280;21187;50.976;13.720;2023-03-18T03:22:34;97858.25;;;9.09;34.68
34983;BME280;21187;50.976;13.720;2023-03-18T03:27:36;97867.47;;;9.08;34.58
34983;BME280;21187;50.976;13.720;2023-03-18T03:32:38;97860.97;;;9.09;34.88
34983;BME280;21187;50.976;13.720;2023-03-18T03:37:44;97855.09;;;9.07;34.79
34983;BME280;21187;50.976;13.720;2023-03-18T03:42:47;97870.84;;;9.05;34.78
34983;BME280;21187;50.976;13.720;2023-03-18T03:47:49;97870.84;;;9.05;34.79
34983;BME280;21187;50.976;13.720;2023-03-18T03:52:52;97878.97;;;9.05;34.59
34983;BME280;21187;50.976;13.720;2023-03-18T03:57:54;97880.38;;;8.99;34.67
34983;BME280;21187;50.976;13.720;2023-03-18T04:02:56;97888.91;;;9.01;34.93
34983;BME280;21187;50.976;13.720;2023-03-18T04:07:58;97893.88;;;8.99;34.41
34983;BME280;21187;50.976;13.720;2023-03-18T04:13:11;97898.72;;;8.93;34.94
34983;BME280;21187;50.976;13.720;2023-03-18T04:18:14;97899.31;;;8.87;35.25
34983;BME280;21187;50.976;13.720;2023-03-18T04:23:18;97906.53;;;8.82;35.49
34983;BME280;21187;50.976;13.720;2023-03-18T04:28:20;97907.66;;;9.10;34.22
34983;BME280;21187;50.976;13.720;2023-03-18T04:33:23;97904.84;;;9.06;34.54
34983;BME280;21187;50.976;13.720;2023-03-18T04:38:25;97911.78;;;8.63;35.36
34983;BME280;21187;50.976;13.720;2023-03-18T04:43:29;97917.69;;;8.53;35.12
34983;BME280;21187;50.976;13.720;2023-03-18T04:48:31;97920.47;;;8.44;35.91
34983;BME280;21187;50.976;13.720;2023-03-18T04:53:38;97923.94;;;8.44;35.48
34983;BME280;21187;50.976;13.720;2023-03-18T04:58:42;97923.06;;;8.40;35.79
34983;BME280;21187;50.976;13.720;2023-03-18T05:03:50;97923.53;;;8.30;35.54
34983;BME280;21187;50.976;13.720;2023-03-18T05:08:54;97918.06;;;8.26;35.73
34983;BME280;21187;50.976;13.720;2023-03-18T05:14:00;97920.75;;;8.26;35.44
34983;BME280;21187;50.976;13.720;2023-03-18T05:19:08;97923.69;;;7.72;36.63
34983;BME280;21187;50.976;13.720;2023-03-18T05:24:15;97921.69;;;7.56;37.09
34983;BME280;21187;50.976;13.720;2023-03-18T05:29:18;97925.84;;;7.91;36.49
34983;BME280;21187;50.976;13.720;2023-03-18T05:34:46;97931.44;;;7.98;36.37
34983;BME280;21187;50.976;13.720;2023-03-18T05:39:49;97927.06;;;8.06;36.16
34983;BME280;21187;50.976;13.720;2023-03-18T05:44:53;97934.81;;;8.07;36.33
34983;BME280;21187;50.976;13.720;2023-03-18T05:49:58;97937.38;;;8.04;36.03
34983;BME280;21187;50.976;13.720;2023-03-18T05:55:01;97939.09;;;7.96;36.51
34983;BME280;21187;50.976;13.720;2023-03-18T06:00:08;97939.75;;;7.93;36.49
34983;BME280;21187;50.976;13.720;2023-03-18T06:05:17;97950.31;;;7.98;36.62
34983;BME280;21187;50.976;13.720;2023-03-18T06:10:21;97950.09;;;8.03;36.43
34983;BME280;21187;50.976;13.720;2023-03-18T06:15:24;97946.28;;;8.04;36.76
34983;BME280;21187;50.976;13.720;2023-03-18T06:20:27;97951.88;;;8.11;37.09
34983;BME280;21187;50.976;13.720;2023-03-18T06:25:28;97960.19;;;8.06;37.42
34983;BME280;21187;50.976;13.720;2023-03-18T06:30:30;97967.28;;;8.11;37.32
34983;BME280;21187;50.976;13.720;2023-03-18T06:35:33;97958.59;;;8.55;36.43
34983;BME280;21187;50.976;13.720;2023-03-18T06:40:36;97967.19;;;8.85;36.08
34983;BME280;21187;50.976;13.720;2023-03-18T06:45:40;97962.28;;;9.03;35.92
34983;BME280;21187;50.976;13.720;2023-03-18T06:50:43;97971.94;;;8.76;36.95
34983;BME280;21187;50.976;13.720;2023-03-18T06:55:52;97973.69;;;8.43;37.73
34983;BME280;21187;50.976;13.720;2023-03-18T07:00:58;97969.84;;;8.44;38.20
34983;BME280;21187;50.976;13.720;2023-03-18T07:06:06;97965.41;;;9.05;37.40
34983;BME280;21187;50.976;13.720;2023-03-18T07:11:12;97972.38;;;9.35;37.02
34983;BME280;21187;50.976;13.720;2023-03-18T07:16:16;97973.16;;;9.51;36.73
34983;BME280;21187;50.976;13.720;2023-03-18T07:21:18;97985.22;;;9.86;36.32
34983;BME280;21187;50.976;13.720;2023-03-18T07:26:21;97972.13;;;10.20;36.42
34983;BME280;21187;50.976;13.720;2023-03-18T07:31:23;97967.53;;;10.56;36.11
34983;BME280;21187;50.976;13.720;2023-03-18T07:36:26;97975.31;;;10.96;35.72
34983;BME280;21187;50.976;13.720;2023-03-18T07:41:28;97973.25;;;11.09;36.05
34983;BME280;21187;50.976;13.720;2023-03-18T07:46:31;97971.94;;;11.23;36.89
34983;BME280;21187;50.976;13.720;2023-03-18T07:51:33;97958.19;;;11.55;36.40
34983;BME280;21187;50.976;13.720;2023-03-18T07:56:34;97970.44;;;11.68;36.67
34983;BME280;21187;50.976;13.720;2023-03-18T08:01:36;97972.16;;;12.26;35.78
34983;BME280;21187;50.976;13.720;2023-03-18T08:06:40;97967.38;;;12.46;35.54
34983;BME280;21187;50.976;13.720;2023-03-18T08:11:42;97974.66;;;12.69;35.46
34983;BME280;21187;50.976;13.720;2023-03-18T08:16:44;97970.00;;;12.39;36.25
34983;BME280;21187;50.976;13.720;2023-03-18T08:21:46;97978.69;;;12.48;36.19
34983;BME280;21187;50.976;13.720;2023-03-18T08:26:52;97974.25;;;12.67;35.96
34983;BME280;21187;50.976;13.720;2023-03-18T08:31:56;97987.03;;;12.97;36.09
34983;BME280;21187;50.976;13.720;2023-03-18T08:36:59;97982.25;;;13.21;35.86
34983;BME280;21187;50.976;13.720;2023-03-18T08:42:02;97974.25;;;13.35;35.41
34983;BME280;21187;50.976;13.720;2023-03-18T08:47:05;97988.78;;;13.88;34.82
34983;BME280;21187;50.976;13.720;2023-03-18T08:52:07;97992.78;;;14.01;34.28
34983;BME280;21187;50.976;13.720;2023-03-18T08:57:09;98000.69;;;14.21;34.14
34983;BME280;21187;50.976;13.720;2023-03-18T09:02:14;98000.94;;;14.53;33.75
34983;BME280;21187;50.976;13.720;2023-03-18T09:07:18;98002.69;;;14.87;33.66
34983;BME280;21187;50.976;13.720;2023-03-18T09:12:20;98000.03;;;15.01;33.54
34983;BME280;21187;50.976;13.720;2023-03-18T09:17:23;97998.19;;;15.34;33.17
34983;BME280;21187;50.976;13.720;2023-03-18T09:22:45;98006.06;;;15.64;32.97
34983;BME280;21187;50.976;13.720;2023-03-18T09:27:47;97993.56;;;15.74;32.69
34983;BME280;21187;50.976;13.720;2023-03-18T09:32:49;97997.53;;;15.95;32.54
34983;BME280;21187;50.976;13.720;2023-03-18T09:37:51;97995.19;;;16.01;32.39
34983;BME280;21187;50.976;13.720;2023-03-18T09:59:17;97985.72;;;16.77;32.04
34983;BME280;21187;50.976;13.720;2023-03-18T10:04:24;97977.56;;;16.63;32.67
34983;BME280;21187;50.976;13.720;2023-03-18T10:09:38;97969.25;;;16.88;32.61
34983;BME280;21187;50.976;13.720;2023-03-18T10:14:48;97977.22;;;17.42;32.08
34983;BME280;21187;50.976;13.720;2023-03-18T10:19:56;97972.09;;;17.52;31.73
34983;BME280;21187;50.976;13.720;2023-03-18T10:25:20;97976.75;;;17.58;31.89
34983;BME280;21187;50.976;13.720;2023-03-18T10:31:09;97979.16;;;17.49;31.99
34983;BME280;21187;50.976;13.720;2023-03-18T10:41:37;97987.72;;;17.55;32.11
34983;BME280;21187;50.976;13.720;2023-03-18T10:46:45;97989.50;;;17.12;32.87
34983;BME280;21187;50.976;13.720;2023-03-18T10:52:00;97988.75;;;17.08;33.04
34983;BME280;21187;50.976;13.720;2023-03-18T10:57:16;97991.66;;;17.50;32.13
34983;BME280;21187;50.976;13.720;2023-03-18T11:02:34;97999.50;;;17.44;31.93
34983;BME280;21187;50.976;13.720;2023-03-18T11:08:00;97992.50;;;17.36;31.83
34983;BME280;21187;50.976;13.720;2023-03-18T11:13:04;98000.78;;;17.29;31.88
34983;BME280;21187;50.976;13.720;2023-03-18T11:18:13;98005.50;;;17.25;31.92
34983;BME280;21187;50.976;13.720;2023-03-18T11:23:33;98003.13;;;17.27;31.95
34983;BME280;21187;50.976;13.720;2023-03-18T11:28:57;97997.66;;;17.27;31.91
34983;BME280;21187;50.976;13.720;2023-03-18T11:33:59;98009.34;;;17.31;31.92
34983;BME280;21187;50.976;13.720;2023-03-18T11:39:05;97999.91;;;17.39;31.79
34983;BME280;21187;50.976;13.720;2023-03-18T11:44:16;98005.75;;;17.49;31.87
34983;BME280;21187;50.976;13.720;2023-03-18T11:49:21;97999.31;;;17.73;31.35
34983;BME280;21187;50.976;13.720;2023-03-18T12:21:04;97993.09;;;17.66;31.71
34983;BME280;21187;50.976;13.720;2023-03-18T12:26:36;97995.41;;;17.74;31.53
34983;BME280;21187;50.976;13.720;2023-03-18T12:32:03;97989.13;;;17.77;31.66
34983;BME280;21187;50.976;13.720;2023-03-18T12:37:15;98003.19;;;17.79;31.74
34983;BME280;21187;50.976;13.720;2023-03-18T12:47:37;97993.81;;;17.77;31.98
34983;BME280;21187;50.976;13.720;2023-03-18T12:52:55;97989.94;;;17.74;32.08
34983;BME280;21187;50.976;13.720;2023-03-18T12:58:06;97999.72;;;17.75;32.11
34983;BME280;21187;50.976;13.720;2023-03-18T13:08:44;97987.50;;;17.84;31.97
34983;BME280;21187;50.976;13.720;2023-03-18T13:13:52;97996.88;;;17.86;31.96
34983;BME280;21187;50.976;13.720;2023-03-18T13:18:56;97992.50;;;17.43;32.93
34983;BME280;21187;50.976;13.720;2023-03-18T13:40:00;97988.88;;;18.13;31.93
34983;BME280;21187;50.976;13.720;2023-03-18T13:50:37;97977.41;;;18.26;31.55
34983;BME280;21187;50.976;13.720;2023-03-18T13:55:45;97974.31;;;18.24;31.67
34983;BME280;21187;50.976;13.720;2023-03-18T14:16:27;97955.72;;;18.77;30.99
34983;BME280;21187;50.976;13.720;2023-03-18T14:21:32;97954.00;;;18.94;30.86
34983;BME280;21187;50.976;13.720;2023-03-18T14:26:34;97963.13;;;19.15;30.77
34983;BME280;21187;50.976;13.720;2023-03-18T14:42:26;97956.63;;;19.01;30.95
34983;BME280;21187;50.976;13.720;2023-03-18T14:47:49;97943.41;;;18.92;31.07
34983;BME280;21187;50.976;13.720;2023-03-18T14:52:57;97946.63;;;18.84;31.28
34983;BME280;21187;50.976;13.720;2023-03-18T14:58:03;97945.16;;;18.75;31.18
34983;BME280;21187;50.976;13.720;2023-03-18T15:03:14;97933.91;;;18.66;31.37
34983;BME280;21187;50.976;13.720;2023-03-18T15:08:19;97936.81;;;18.52;31.59
34983;BME280;21187;50.976;13.720;2023-03-18T15:13:24;97944.75;;;18.42;31.71
34983;BME280;21187;50.976;13.720;2023-03-18T15:18:34;97939.34;;;18.35;31.80
34983;BME280;21187;50.976;13.720;2023-03-18T15:23:43;97951.59;;;18.23;32.03
34983;BME280;21187;50.976;13.720;2023-03-18T15:28:47;97949.78;;;18.09;32.25
34983;BME280;21187;50.976;13.720;2023-03-18T15:39:20;97958.19;;;17.80;32.50
34983;BME280;21187;50.976;13.720;2023-03-18T15:44:39;97956.28;;;17.74;32.60
34983;BME280;21187;50.976;13.720;2023-03-18T15:54:55;97964.97;;;17.65;32.67
34983;BME280;21187;50.976;13.720;2023-03-18T15:59:58;97977.50;;;17.59;32.62
34983;BME280;21187;50.976;13.720;2023-03-18T16:05:07;97971.75;;;17.46;32.83
34983;BME280;21187;50.976;13.720;2023-03-18T16:10:18;97975.75;;;17.27;33.13
34983;BME280;21187;50.976;13.720;2023-03-18T16:15:24;97974.63;;;17.17;32.96
34983;BME280;21187;50.976;13.720;2023-03-18T16:20:29;97981.69;;;17.07;33.12
34983;BME280;21187;50.976;13.720;2023-03-18T16:25:32;97991.53;;;16.94;32.92
34983;BME280;21187;50.976;13.720;2023-03-18T16:30:35;97986.88;;;16.76;33.01
34983;BME280;21187;50.976;13.720;2023-03-18T16:35:41;97993.56;;;16.61;33.14
34983;BME280;21187;50.976;13.720;2023-03-18T16:40:44;97990.09;;;16.50;33.15
34983;BME280;21187;50.976;13.720;2023-03-18T16:45:49;97999.84;;;16.36;32.96
34983;BME280;21187;50.976;13.720;2023-03-18T16:50:51;98004.56;;;16.25;33.08
34983;BME280;21187;50.976;13.720;2023-03-18T16:55:55;98011.59;;;16.11;33.19
34983;BME280;21187;50.976;13.720;2023-03-18T17:00:58;98018.22;;;15.92;33.41
34983;BME280;21187;50.976;13.720;2023-03-18T17:06:00;98024.00;;;15.69;33.46
34983;BME280;21187;50.976;13.720;2023-03-18T17:11:03;98025.13;;;15.50;33.38
34983;BME280;21187;50.976;13.720;2023-03-18T17:16:15;98020.03;;;15.34;33.60
34983;BME280;21187;50.976;13.720;2023-03-18T17:21:18;98028.94;;;15.17;33.86
34983;BME280;21187;50.976;13.720;2023-03-18T17:26:20;98021.06;;;15.04;33.72
34983;BME280;21187;50.976;13.720;2023-03-18T17:31:23;98031.53;;;14.95;34.04
34983;BME280;21187;50.976;13.720;2023-03-18T17:36:25;98031.09;;;14.86;33.88
34983;BME280;21187;50.976;13.720;2023-03-18T17:41:30;98042.00;;;14.78;34.21
34983;BME280;21187;50.976;13.720;2023-03-18T17:46:35;98047.03;;;14.76;33.99
34983;BME280;21187;50.976;13.720;2023-03-18T17:51:36;98039.22;;;14.71;34.15
34983;BME280;21187;50.976;13.720;2023-03-18T17:56:39;98043.03;;;14.63;34.24
34983;BME280;21187;50.976;13.720;2023-03-18T18:01:43;98053.09;;;14.55;34.42
34983;BME280;21187;50.976;13.720;2023-03-18T18:06:46;98057.72;;;14.47;34.36
34983;BME280;21187;50.976;13.720;2023-03-18T18:11:49;98060.38;;;14.40;34.51
34983;BME280;21187;50.976;13.720;2023-03-18T18:16:52;98052.53;;;14.28;34.54
34983;BME280;21187;50.976;13.720;2023-03-18T18:21:56;98054.41;;;14.20;34.60
34983;BME280;21187;50.976;13.720;2023-03-18T18:26:59;98048.06;;;14.09;34.78
34983;BME280;21187;50.976;13.720;2023-03-18T18:32:01;98053.47;;;14.02;34.64
34983;BME280;21187;50.976;13.720;2023-03-18T18:37:03;98049.47;;;13.92;34.87
34983;BME280;21187;50.976;13.720;2023-03-18T18:42:05;98050.09;;;13.74;35.02
34983;BME280;21187;50.976;13.720;2023-03-18T18:47:16;98051.91;;;13.63;35.33
34983;BME280;21187;50.976;13.720;2023-03-18T18:52:19;98056.16;;;13.57;35.20
34983;BME280;21187;50.976;13.720;2023-03-18T18:57:27;98040.47;;;13.46;35.30
34983;BME280;21187;50.976;13.720;2023-03-18T19:02:36;98032.53;;;13.34;35.40
34983;BME280;21187;50.976;13.720;2023-03-18T19:07:41;98038.53;;;13.17;35.68
34983;BME280;21187;50.976;13.720;2023-03-18T19:12:43;98042.22;;;13.01;35.70
34983;BME280;21187;50.976;13.720;2023-03-18T19:17:45;98035.84;;;12.86;36.02
34983;BME280;21187;50.976;13.720;2023-03-18T19:22:47;98029.50;;;12.78;36.13
34983;BME280;21187;50.976;13.720;2023-03-18T19:27:52;98032.91;;;12.72;36.14
34983;BME280;21187;50.976;13.720;2023-03-18T19:32:55;98046.03;;;12.66;36.29
34983;BME280;21187;50.976;13.720;2023-03-18T19:37:58;98045.53;;;12.57;36.31
34983;BME280;21187;50.976;13.720;2023-03-18T19:43:00;98053.22;;;12.51;36.62
34983;BME280;21187;50.976;13.720;2023-03-18T19:48:02;98055.03;;;12.43;36.72
34983;BME280;21187;50.976;13.720;2023-03-18T19:53:12;98051.78;;;12.34;36.70
34983;BME280;21187;50.976;13.720;2023-03-18T19:58:25;98054.38;;;12.27;36.86
34983;BME280;21187;50.976;13.720;2023-03-18T20:03:27;98054.31;;;12.23;36.90
34983;BME280;21187;50.976;13.720;2023-03-18T20:08:29;98056.25;;;12.23;37.17
34983;BME280;21187;50.976;13.720;2023-03-18T20:13:31;98056.56;;;12.18;37.05
34983;BME280;21187;50.976;13.720;2023-03-18T20:18:33;98056.16;;;12.15;37.15
34983;BME280;21187;50.976;13.720;2023-03-18T20:23:36;98044.78;;;12.10;37.14
34983;BME280;21187;50.976;13.720;2023-03-18T20:28:38;98054.34;;;12.00;37.31
34983;BME280;21187;50.976;13.720;2023-03-18T20:33:45;98056.88;;;11.93;37.57
34983;BME280;21187;50.976;13.720;2023-03-18T20:38:48;98062.50;;;11.80;37.88
34983;BME280;21187;50.976;13.720;2023-03-18T20:43:51;98059.66;;;11.73;37.97
34983;BME280;21187;50.976;13.720;2023-03-18T20:48:53;98060.28;;;11.66;37.96
34983;BME280;21187;50.976;13.720;2023-03-18T20:53:55;98057.81;;;11.58;38.32
34983;BME280;21187;50.976;13.720;2023-03-18T20:58:57;98057.63;;;11.47;38.14
34983;BME280;21187;50.976;13.720;2023-03-18T21:03:59;98056.81;;;11.46;38.39
34983;BME280;21187;50.976;13.720;2023-03-18T21:09:03;98051.41;;;11.46;38.56
34983;BME280;21187;50.976;13.720;2023-03-18T21:14:13;98049.13;;;11.48;38.67
34983;BME280;21187;50.976;13.720;2023-03-18T21:19:15;98054.56;;;11.48;38.27
34983;BME280;21187;50.976;13.720;2023-03-18T21:24:24;98059.69;;;11.54;38.35
34983;BME280;21187;50.976;13.720;2023-03-18T21:29:26;98067.03;;;11.53;38.31
34983;BME280;21187;50.976;13.720;2023-03-18T21:34:28;98059.97;;;11.48;38.42
34983;BME280;21187;50.976;13.720;2023-03-18T21:39:30;98062.25;;;11.46;38.75
34983;BME280;21187;50.976;13.720;2023-03-18T21:44:32;98062.97;;;11.43;38.68
34983;BME280;21187;50.976;13.720;2023-03-18T21:49:34;98054.41;;;11.41;38.86
34983;BME280;21187;50.976;13.720;2023-03-18T21:54:36;98057.06;;;11.38;39.09
34983;BME280;21187;50.976;13.720;2023-03-18T21:59:38;98048.84;;;11.34;39.19
34983;BME280;21187;50.976;13.720;2023-03-18T22:04:40;98052.56;;;11.26;39.27
34983;BME280;21187;50.976;13.720;2023-03-18T22:09:42;98050.84;;;11.18;39.87
34983;BME280;21187;50.976;13.720;2023-03-18T22:14:45;98052.28;;;11.11;39.77
34983;BME280;21187;50.976;13.720;2023-03-18T22:19:48;98057.69;;;11.11;39.42
34983;BME280;21187;50.976;13.720;2023-03-18T22:24:50;98068.25;;;11.17;39.21
34983;BME280;21187;50.976;13.720;2023-03-18T22:29:56;98057.06;;;11.18;39.66
34983;BME280;21187;50.976;13.720;2023-03-18T22:34:58;98061.91;;;10.73;40.46
34983;BME280;21187;50.976;13.720;2023-03-18T22:40:00;98064.72;;;10.77;40.20
34983;BME280;21187;50.976;13.720;2023-03-18T22:45:02;98058.38;;;11.08;39.62
34983;BME280;21187;50.976;13.720;2023-03-18T22:50:04;98056.25;;;11.18;39.64
34983;BME280;21187;50.976;13.720;2023-03-18T22:55:16;98046.28;;;11.22;39.36
34983;BME280;21187;50.976;13.720;2023-03-18T23:00:29;98059.41;;;11.20;39.47
34983;BME280;21187;50.976;13.720;2023-03-18T23:05:33;98057.53;;;11.04;39.73
34983;BME280;21187;50.976;13.720;2023-03-18T23:10:35;98055.31;;;10.90;40.14
34983;BME280;21187;50.976;13.720;2023-03-18T23:15:37;98049.31;;;10.81;40.43
34983;BME280;21187;50.976;13.720;2023-03-18T23:20:38;98044.94;;;10.76;40.34
34983;BME280;21187;50.976;13.720;2023-03-18T23:25:42;98045.94;;;10.68;40.52
34983;BME280;21187;50.976;13.720;2023-03-18T23:30:49;98042.72;;;10.62;40.83
34983;BME280;21187;50.976;13.720;2023-03-18T23:35:52;98042.63;;;10.59;40.66
34983;BME280;21187;50.976;13.720;2023-03-18T23:40:54;98047.09;;;10.51;40.75
34983;BME280;21187;50.976;13.720;2023-03-18T23:45:56;98057.69;;;10.40;40.93
34983;BME280;21187;50.976;13.720;2023-03-18T23:50:58;98070.66;;;10.35;41.03
34983;BME280;21187;50.976;13.720;2023-03-18T23:56:00;98057.06;;;10.31;41.20
